sensor_id;sensor_type;location;lat;lon;timestamp;temperature;humidity
59961;DHT22;55902;-37.980;-63.602;2023-05-07T00:00:19;15.60;83.90
59961;DHT22;55902;-37.980;-63.602;2023-05-07T00:02:47;15.50;83.80
59961;DHT22;55902;-37.980;-63.602;2023-05-07T00:05:14;15.50;83.10
59961;DHT22;55902;-37.980;-63.602;2023-05-07T00:07:41;15.50;81.30
59961;DHT22;55902;-37.980;-63.602;2023-05-07T00:10:09;15.50;83.80
59961;DHT22;55902;-37.980;-63.602;2023-05-07T00:12:38;15.50;83.90
59961;DHT22;55902;-37.980;-63.602;2023-05-07T00:15:06;15.40;83.80
59961;DHT22;55902;-37.980;-63.602;2023-05-07T00:17:36;15.40;80.80
59961;DHT22;55902;-37.980;-63.602;2023-05-07T00:20:04;15.40;81.50
59961;DHT22;55902;-37.980;-63.602;2023-05-07T00:22:32;15.40;83.40
59961;DHT22;55902;-37.980;-63.602;2023-05-07T00:24:59;15.30;84.00
59961;DHT22;55902;-37.980;-63.602;2023-05-07T00:27:26;15.30;83.50
59961;DHT22;55902;-37.980;-63.602;2023-05-07T00:29:53;15.30;82.30
59961;DHT22;55902;-37.980;-63.602;2023-05-07T00:32:20;15.30;80.90
59961;DHT22;55902;-37.980;-63.602;2023-05-07T00:34:47;15.20;84.80
59961;DHT22;55902;-37.980;-63.602;2023-05-07T00:37:14;15.20;83.50
59961;DHT22;55902;-37.980;-63.602;2023-05-07T00:39:41;15.20;81.60
59961;DHT22;55902;-37.980;-63.602;2023-05-07T00:42:08;15.20;83.50
59961;DHT22;55902;-37.980;-63.602;2023-05-07T00:44:35;15.10;81.60
59961;DHT22;55902;-37.980;-63.602;2023-05-07T00:47:03;15.10;83.90
59961;DHT22;55902;-37.980;-63.602;2023-05-07T00:49:41;15.10;83.60
59961;DHT22;55902;-37.980;-63.602;2023-05-07T00:52:11;15.10;85.90
59961;DHT22;55902;-37.980;-63.602;2023-05-07T00:54:39;15.00;86.90
59961;DHT22;55902;-37.980;-63.602;2023-05-07T00:57:07;15.00;86.20
59961;DHT22;55902;-37.980;-63.602;2023-05-07T00:59:36;14.90;87.20
59961;DHT22;55902;-37.980;-63.602;2023-05-07T01:02:03;14.90;87.20
59961;DHT22;55902;-37.980;-63.602;2023-05-07T01:04:30;14.80;87.70
59961;DHT22;55902;-37.980;-63.602;2023-05-07T01:06:57;14.90;86.50
59961;DHT22;55902;-37.980;-63.602;2023-05-07T01:09:26;14.80;86.50
59961;DHT22;55902;-37.980;-63.602;2023-05-07T01:11:54;14.80;87.60
59961;DHT22;55902;-37.980;-63.602;2023-05-07T01:14:22;14.80;86.30
59961;DHT22;55902;-37.980;-63.602;2023-05-07T01:16:50;14.80;85.40
59961;DHT22;55902;-37.980;-63.602;2023-05-07T01:19:20;14.80;86.00
59961;DHT22;55902;-37.980;-63.602;2023-05-07T01:21:48;14.70;88.40
59961;DHT22;55902;-37.980;-63.602;2023-05-07T01:24:16;14.70;88.50
59961;DHT22;55902;-37.980;-63.602;2023-05-07T01:26:44;14.70;88.60
59961;DHT22;55902;-37.980;-63.602;2023-05-07T01:29:11;14.60;89.20
59961;DHT22;55902;-37.980;-63.602;2023-05-07T01:31:39;14.60;89.60
59961;DHT22;55902;-37.980;-63.602;2023-05-07T01:34:09;14.60;88.90
59961;DHT22;55902;-37.980;-63.602;2023-05-07T01:36:38;14.50;89.70
59961;DHT22;55902;-37.980;-63.602;2023-05-07T01:39:06;14.60;88.80
59961;DHT22;55902;-37.980;-63.602;2023-05-07T01:41:35;14.50;90.20
59961;DHT22;55902;-37.980;-63.602;2023-05-07T01:44:03;14.50;88.30
59961;DHT22;55902;-37.980;-63.602;2023-05-07T01:46:33;14.50;90.10
59961;DHT22;55902;-37.980;-63.602;2023-05-07T01:49:00;14.40;90.50
59961;DHT22;55902;-37.980;-63.602;2023-05-07T01:51:31;14.40;89.20
59961;DHT22;55902;-37.980;-63.602;2023-05-07T01:53:58;14.40;90.60
59961;DHT22;55902;-37.980;-63.602;2023-05-07T01:56:26;14.40;90.30
59961;DHT22;55902;-37.980;-63.602;2023-05-07T01:58:53;14.40;90.60
59961;DHT22;55902;-37.980;-63.602;2023-05-07T02:01:20;14.30;90.90
59961;DHT22;55902;-37.980;-63.602;2023-05-07T02:03:47;14.30;90.40
59961;DHT22;55902;-37.980;-63.602;2023-05-07T02:06:14;14.30;88.90
59961;DHT22;55902;-37.980;-63.602;2023-05-07T02:08:41;14.40;89.90
59961;DHT22;55902;-37.980;-63.602;2023-05-07T02:11:08;14.40;90.30
59961;DHT22;55902;-37.980;-63.602;2023-05-07T02:13:35;14.30;88.90
59961;DHT22;55902;-37.980;-63.602;2023-05-07T02:16:03;14.40;89.80
59961;DHT22;55902;-37.980;-63.602;2023-05-07T02:18:30;14.30;89.20
59961;DHT22;55902;-37.980;-63.602;2023-05-07T02:20:58;14.40;88.90
59961;DHT22;55902;-37.980;-63.602;2023-05-07T02:23:25;14.30;90.40
59961;DHT22;55902;-37.980;-63.602;2023-05-07T02:25:52;14.30;89.80
59961;DHT22;55902;-37.980;-63.602;2023-05-07T02:28:19;14.30;90.30
59961;DHT22;55902;-37.980;-63.602;2023-05-07T02:30:46;14.30;89.70
59961;DHT22;55902;-37.980;-63.602;2023-05-07T02:33:12;14.30;89.10
59961;DHT22;55902;-37.980;-63.602;2023-05-07T02:35:40;14.30;88.50
59961;DHT22;55902;-37.980;-63.602;2023-05-07T02:38:07;14.30;88.30
59961;DHT22;55902;-37.980;-63.602;2023-05-07T02:40:37;14.30;89.20
59961;DHT22;55902;-37.980;-63.602;2023-05-07T02:43:06;14.30;89.10
59961;DHT22;55902;-37.980;-63.602;2023-05-07T02:45:34;14.30;87.80
59961;DHT22;55902;-37.980;-63.602;2023-05-07T02:48:01;14.20;88.60
59961;DHT22;55902;-37.980;-63.602;2023-05-07T02:50:28;14.20;89.80
59961;DHT22;55902;-37.980;-63.602;2023-05-07T02:52:55;14.20;90.00
59961;DHT22;55902;-37.980;-63.602;2023-05-07T02:55:22;14.20;89.50
59961;DHT22;55902;-37.980;-63.602;2023-05-07T02:57:49;14.10;89.70
59961;DHT22;55902;-37.980;-63.602;2023-05-07T03:00:19;14.10;89.10
59961;DHT22;55902;-37.980;-63.602;2023-05-07T03:02:46;14.10;88.70
59961;DHT22;55902;-37.980;-63.602;2023-05-07T03:05:13;14.10;89.60
59961;DHT22;55902;-37.980;-63.602;2023-05-07T03:07:40;14.10;89.20
59961;DHT22;55902;-37.980;-63.602;2023-05-07T03:10:11;14.10;90.20
59961;DHT22;55902;-37.980;-63.602;2023-05-07T03:12:38;14.00;89.50
59961;DHT22;55902;-37.980;-63.602;2023-05-07T03:15:05;14.00;90.50
59961;DHT22;55902;-37.980;-63.602;2023-05-07T03:17:32;14.00;89.80
59961;DHT22;55902;-37.980;-63.602;2023-05-07T03:19:59;14.00;90.40
59961;DHT22;55902;-37.980;-63.602;2023-05-07T03:22:29;14.00;91.10
59961;DHT22;55902;-37.980;-63.602;2023-05-07T03:24:56;14.00;90.90
59961;DHT22;55902;-37.980;-63.602;2023-05-07T03:27:23;13.90;90.90
59961;DHT22;55902;-37.980;-63.602;2023-05-07T03:29:50;13.90;91.90
59961;DHT22;55902;-37.980;-63.602;2023-05-07T03:32:17;13.80;91.70
59961;DHT22;55902;-37.980;-63.602;2023-05-07T03:34:44;13.80;91.70
59961;DHT22;55902;-37.980;-63.602;2023-05-07T03:37:11;13.80;91.50
59961;DHT22;55902;-37.980;-63.602;2023-05-07T03:39:38;13.80;91.80
59961;DHT22;55902;-37.980;-63.602;2023-05-07T03:42:05;13.80;90.40
59961;DHT22;55902;-37.980;-63.602;2023-05-07T03:44:32;13.80;90.90
59961;DHT22;55902;-37.980;-63.602;2023-05-07T03:46:59;13.90;90.80
59961;DHT22;55902;-37.980;-63.602;2023-05-07T03:49:26;13.90;90.40
59961;DHT22;55902;-37.980;-63.602;2023-05-07T03:51:53;13.90;90.10
59961;DHT22;55902;-37.980;-63.602;2023-05-07T03:54:20;14.00;90.10
59961;DHT22;55902;-37.980;-63.602;2023-05-07T03:56:47;14.00;91.00
59961;DHT22;55902;-37.980;-63.602;2023-05-07T03:59:14;14.00;90.90
59961;DHT22;55902;-37.980;-63.602;2023-05-07T04:01:41;14.00;91.20
59961;DHT22;55902;-37.980;-63.602;2023-05-07T04:04:08;14.00;91.40
59961;DHT22;55902;-37.980;-63.602;2023-05-07T04:06:35;14.00;91.20
59961;DHT22;55902;-37.980;-63.602;2023-05-07T04:09:02;14.00;90.70
59961;DHT22;55902;-37.980;-63.602;2023-05-07T04:11:29;14.00;90.90
59961;DHT22;55902;-37.980;-63.602;2023-05-07T04:17:36;14.00;91.10
59961;DHT22;55902;-37.980;-63.602;2023-05-07T04:34:50;13.90;90.90
59961;DHT22;55902;-37.980;-63.602;2023-05-07T04:37:17;13.80;91.50
59961;DHT22;55902;-37.980;-63.602;2023-05-07T04:39:45;13.70;91.30
59961;DHT22;55902;-37.980;-63.602;2023-05-07T04:42:15;13.60;92.00
59961;DHT22;55902;-37.980;-63.602;2023-05-07T04:44:42;13.60;91.50
59961;DHT22;55902;-37.980;-63.602;2023-05-07T04:47:10;13.60;91.50
59961;DHT22;55902;-37.980;-63.602;2023-05-07T04:49:40;13.50;91.70
59961;DHT22;55902;-37.980;-63.602;2023-05-07T04:52:07;13.50;91.60
59961;DHT22;55902;-37.980;-63.602;2023-05-07T04:54:34;13.40;91.30
59961;DHT22;55902;-37.980;-63.602;2023-05-07T04:57:03;13.30;91.40
59961;DHT22;55902;-37.980;-63.602;2023-05-07T04:59:30;13.30;92.00
59961;DHT22;55902;-37.980;-63.602;2023-05-07T05:01:58;13.20;92.00
59961;DHT22;55902;-37.980;-63.602;2023-05-07T05:04:25;13.20;91.60
59961;DHT22;55902;-37.980;-63.602;2023-05-07T05:06:52;13.20;92.20
59961;DHT22;55902;-37.980;-63.602;2023-05-07T05:09:19;13.20;91.90
59961;DHT22;55902;-37.980;-63.602;2023-05-07T05:11:46;13.10;92.20
59961;DHT22;55902;-37.980;-63.602;2023-05-07T05:14:13;13.10;92.60
59961;DHT22;55902;-37.980;-63.602;2023-05-07T05:16:40;13.00;92.80
59961;DHT22;55902;-37.980;-63.602;2023-05-07T05:19:07;13.00;92.80
59961;DHT22;55902;-37.980;-63.602;2023-05-07T05:21:34;13.00;93.30
59961;DHT22;55902;-37.980;-63.602;2023-05-07T05:24:01;12.90;93.20
59961;DHT22;55902;-37.980;-63.602;2023-05-07T05:29:50;12.80;93.30
59961;DHT22;55902;-37.980;-63.602;2023-05-07T05:32:18;12.80;92.70
59961;DHT22;55902;-37.980;-63.602;2023-05-07T05:45:48;12.60;93.90
59961;DHT22;55902;-37.980;-63.602;2023-05-07T05:48:16;12.60;93.80
59961;DHT22;55902;-37.980;-63.602;2023-05-07T05:50:43;12.60;94.00
59961;DHT22;55902;-37.980;-63.602;2023-05-07T05:53:10;12.60;93.70
59961;DHT22;55902;-37.980;-63.602;2023-05-07T05:55:37;12.60;93.70
59961;DHT22;55902;-37.980;-63.602;2023-05-07T05:58:04;12.60;93.60
59961;DHT22;55902;-37.980;-63.602;2023-05-07T06:00:31;12.60;92.70
59961;DHT22;55902;-37.980;-63.602;2023-05-07T06:02:58;12.60;93.10
59961;DHT22;55902;-37.980;-63.602;2023-05-07T06:05:25;12.60;93.60
59961;DHT22;55902;-37.980;-63.602;2023-05-07T06:07:52;12.60;93.80
59961;DHT22;55902;-37.980;-63.602;2023-05-07T06:10:19;12.50;94.40
59961;DHT22;55902;-37.980;-63.602;2023-05-07T06:12:46;12.50;94.30
59961;DHT22;55902;-37.980;-63.602;2023-05-07T06:15:16;12.50;94.30
59961;DHT22;55902;-37.980;-63.602;2023-05-07T06:17:43;12.50;94.70
59961;DHT22;55902;-37.980;-63.602;2023-05-07T06:20:10;12.40;95.20
59961;DHT22;55902;-37.980;-63.602;2023-05-07T06:22:37;12.40;95.10
59961;DHT22;55902;-37.980;-63.602;2023-05-07T06:25:04;12.40;95.20
59961;DHT22;55902;-37.980;-63.602;2023-05-07T06:27:31;12.40;95.00
59961;DHT22;55902;-37.980;-63.602;2023-05-07T06:29:58;12.40;94.90
59961;DHT22;55902;-37.980;-63.602;2023-05-07T06:32:25;12.40;95.00
59961;DHT22;55902;-37.980;-63.602;2023-05-07T06:34:52;12.40;94.50
59961;DHT22;55902;-37.980;-63.602;2023-05-07T06:47:26;12.40;94.30
59961;DHT22;55902;-37.980;-63.602;2023-05-07T06:49:53;12.30;94.10
59961;DHT22;55902;-37.980;-63.602;2023-05-07T06:52:20;12.30;94.00
59961;DHT22;55902;-37.980;-63.602;2023-05-07T06:54:46;12.30;93.60
59961;DHT22;55902;-37.980;-63.602;2023-05-07T06:57:13;12.30;93.50
59961;DHT22;55902;-37.980;-63.602;2023-05-07T06:59:40;12.30;93.90
59961;DHT22;55902;-37.980;-63.602;2023-05-07T07:02:07;12.20;94.70
59961;DHT22;55902;-37.980;-63.602;2023-05-07T07:04:35;12.20;94.10
59961;DHT22;55902;-37.980;-63.602;2023-05-07T07:07:02;12.20;94.30
59961;DHT22;55902;-37.980;-63.602;2023-05-07T07:09:28;12.20;93.80
59961;DHT22;55902;-37.980;-63.602;2023-05-07T07:11:56;12.20;94.30
59961;DHT22;55902;-37.980;-63.602;2023-05-07T07:14:23;12.10;95.30
59961;DHT22;55902;-37.980;-63.602;2023-05-07T07:16:50;12.10;95.50
59961;DHT22;55902;-37.980;-63.602;2023-05-07T07:19:17;12.10;95.40
59961;DHT22;55902;-37.980;-63.602;2023-05-07T07:21:44;12.10;95.20
59961;DHT22;55902;-37.980;-63.602;2023-05-07T07:24:11;12.00;95.20
59961;DHT22;55902;-37.980;-63.602;2023-05-07T07:26:38;12.00;95.10
59961;DHT22;55902;-37.980;-63.602;2023-05-07T07:29:06;12.00;94.90
59961;DHT22;55902;-37.980;-63.602;2023-05-07T07:31:33;12.00;94.90
59961;DHT22;55902;-37.980;-63.602;2023-05-07T07:34:00;12.00;94.90
59961;DHT22;55902;-37.980;-63.602;2023-05-07T07:36:27;11.90;94.60
59961;DHT22;55902;-37.980;-63.602;2023-05-07T07:38:54;11.90;94.30
59961;DHT22;55902;-37.980;-63.602;2023-05-07T07:41:21;11.80;94.10
59961;DHT22;55902;-37.980;-63.602;2023-05-07T07:43:48;11.80;94.20
59961;DHT22;55902;-37.980;-63.602;2023-05-07T07:46:15;11.70;94.00
59961;DHT22;55902;-37.980;-63.602;2023-05-07T07:48:42;11.70;94.40
59961;DHT22;55902;-37.980;-63.602;2023-05-07T07:51:09;11.70;94.10
59961;DHT22;55902;-37.980;-63.602;2023-05-07T07:53:36;11.60;94.90
59961;DHT22;55902;-37.980;-63.602;2023-05-07T07:56:03;11.60;94.80
59961;DHT22;55902;-37.980;-63.602;2023-05-07T07:58:30;11.50;94.50
59961;DHT22;55902;-37.980;-63.602;2023-05-07T08:00:57;11.50;94.80
59961;DHT22;55902;-37.980;-63.602;2023-05-07T08:03:24;11.50;94.50
59961;DHT22;55902;-37.980;-63.602;2023-05-07T08:05:51;11.40;94.50
59961;DHT22;55902;-37.980;-63.602;2023-05-07T08:11:28;11.40;94.70
59961;DHT22;55902;-37.980;-63.602;2023-05-07T08:13:56;11.40;95.20
59961;DHT22;55902;-37.980;-63.602;2023-05-07T08:16:23;11.30;94.90
59961;DHT22;55902;-37.980;-63.602;2023-05-07T08:18:50;11.30;95.40
59961;DHT22;55902;-37.980;-63.602;2023-05-07T08:21:17;11.30;96.10
59961;DHT22;55902;-37.980;-63.602;2023-05-07T08:23:44;11.20;95.80
59961;DHT22;55902;-37.980;-63.602;2023-05-07T08:26:11;11.20;95.70
59961;DHT22;55902;-37.980;-63.602;2023-05-07T08:28:38;11.20;96.30
59961;DHT22;55902;-37.980;-63.602;2023-05-07T08:31:06;11.20;97.20
59961;DHT22;55902;-37.980;-63.602;2023-05-07T08:33:33;11.20;97.50
59961;DHT22;55902;-37.980;-63.602;2023-05-07T08:35:59;11.10;97.70
59961;DHT22;55902;-37.980;-63.602;2023-05-07T08:38:26;11.00;97.20
59961;DHT22;55902;-37.980;-63.602;2023-05-07T08:40:53;11.00;96.70
59961;DHT22;55902;-37.980;-63.602;2023-05-07T08:43:22;11.00;96.60
59961;DHT22;55902;-37.980;-63.602;2023-05-07T08:45:54;10.90;96.50
59961;DHT22;55902;-37.980;-63.602;2023-05-07T08:48:26;10.90;96.20
59961;DHT22;55902;-37.980;-63.602;2023-05-07T08:50:54;10.90;96.10
59961;DHT22;55902;-37.980;-63.602;2023-05-07T08:53:21;10.90;95.90
59961;DHT22;55902;-37.980;-63.602;2023-05-07T08:55:48;10.80;95.70
59961;DHT22;55902;-37.980;-63.602;2023-05-07T08:58:15;10.80;96.00
59961;DHT22;55902;-37.980;-63.602;2023-05-07T09:10:48;10.70;95.60
59961;DHT22;55902;-37.980;-63.602;2023-05-07T09:13:16;10.70;95.90
59961;DHT22;55902;-37.980;-63.602;2023-05-07T09:15:44;10.70;96.50
59961;DHT22;55902;-37.980;-63.602;2023-05-07T09:18:14;10.60;96.70
59961;DHT22;55902;-37.980;-63.602;2023-05-07T09:20:41;10.60;97.20
59961;DHT22;55902;-37.980;-63.602;2023-05-07T09:23:08;10.50;97.50
59961;DHT22;55902;-37.980;-63.602;2023-05-07T09:25:36;10.50;97.00
59961;DHT22;55902;-37.980;-63.602;2023-05-07T09:28:04;10.50;96.90
59961;DHT22;55902;-37.980;-63.602;2023-05-07T09:30:36;10.50;97.00
59961;DHT22;55902;-37.980;-63.602;2023-05-07T09:33:04;10.50;96.50
59961;DHT22;55902;-37.980;-63.602;2023-05-07T09:35:31;10.40;96.60
59961;DHT22;55902;-37.980;-63.602;2023-05-07T09:37:59;10.40;96.40
59961;DHT22;55902;-37.980;-63.602;2023-05-07T09:40:28;10.40;96.20
59961;DHT22;55902;-37.980;-63.602;2023-05-07T09:42:55;10.40;95.70
59961;DHT22;55902;-37.980;-63.602;2023-05-07T09:45:26;10.40;96.50
59961;DHT22;55902;-37.980;-63.602;2023-05-07T09:47:58;10.30;96.40
59961;DHT22;55902;-37.980;-63.602;2023-05-07T09:50:29;10.30;96.10
59961;DHT22;55902;-37.980;-63.602;2023-05-07T09:52:57;10.30;97.10
59961;DHT22;55902;-37.980;-63.602;2023-05-07T09:55:24;10.20;96.70
59961;DHT22;55902;-37.980;-63.602;2023-05-07T09:57:53;10.20;96.30
59961;DHT22;55902;-37.980;-63.602;2023-05-07T10:00:22;10.20;96.10
59961;DHT22;55902;-37.980;-63.602;2023-05-07T10:02:51;10.10;95.90
59961;DHT22;55902;-37.980;-63.602;2023-05-07T10:05:19;10.20;96.70
59961;DHT22;55902;-37.980;-63.602;2023-05-07T10:07:49;10.10;97.20
59961;DHT22;55902;-37.980;-63.602;2023-05-07T10:10:17;10.10;97.10
59961;DHT22;55902;-37.980;-63.602;2023-05-07T10:12:44;10.10;97.00
59961;DHT22;55902;-37.980;-63.602;2023-05-07T10:15:12;10.00;96.90
59961;DHT22;55902;-37.980;-63.602;2023-05-07T10:17:41;10.00;96.70
59961;DHT22;55902;-37.980;-63.602;2023-05-07T10:20:08;10.00;96.70
59961;DHT22;55902;-37.980;-63.602;2023-05-07T10:22:43;10.00;96.70
59961;DHT22;55902;-37.980;-63.602;2023-05-07T10:25:21;10.00;96.60
59961;DHT22;55902;-37.980;-63.602;2023-05-07T10:27:50;10.00;96.70
59961;DHT22;55902;-37.980;-63.602;2023-05-07T10:32:58;9.90;96.90
59961;DHT22;55902;-37.980;-63.602;2023-05-07T10:35:36;9.90;97.10
59961;DHT22;55902;-37.980;-63.602;2023-05-07T10:38:04;9.90;97.80
59961;DHT22;55902;-37.980;-63.602;2023-05-07T10:40:32;9.90;97.60
59961;DHT22;55902;-37.980;-63.602;2023-05-07T10:43:01;9.90;97.40
59961;DHT22;55902;-37.980;-63.602;2023-05-07T10:45:29;9.90;97.30
59961;DHT22;55902;-37.980;-63.602;2023-05-07T10:48:10;9.90;97.40
59961;DHT22;55902;-37.980;-63.602;2023-05-07T10:50:38;9.90;97.90
59961;DHT22;55902;-37.980;-63.602;2023-05-07T10:58:48;9.80;97.40
59961;DHT22;55902;-37.980;-63.602;2023-05-07T11:01:15;9.70;97.50
59961;DHT22;55902;-37.980;-63.602;2023-05-07T11:04:15;9.70;97.70
59961;DHT22;55902;-37.980;-63.602;2023-05-07T11:15:10;9.50;97.70
59961;DHT22;55902;-37.980;-63.602;2023-05-07T11:17:54;9.50;97.50
59961;DHT22;55902;-37.980;-63.602;2023-05-07T11:26:08;9.40;97.20
59961;DHT22;55902;-37.980;-63.602;2023-05-07T11:28:40;9.40;97.10
59961;DHT22;55902;-37.980;-63.602;2023-05-07T11:31:08;9.40;97.00
59961;DHT22;55902;-37.980;-63.602;2023-05-07T11:33:37;9.40;96.90
59961;DHT22;55902;-37.980;-63.602;2023-05-07T11:36:05;9.40;97.00
59961;DHT22;55902;-37.980;-63.602;2023-05-07T11:38:38;9.40;96.80
59961;DHT22;55902;-37.980;-63.602;2023-05-07T11:41:05;9.40;96.60
59961;DHT22;55902;-37.980;-63.602;2023-05-07T12:05:02;10.10;97.40
59961;DHT22;55902;-37.980;-63.602;2023-05-07T12:07:29;10.60;98.10
59961;DHT22;55902;-37.980;-63.602;2023-05-07T12:09:58;11.10;98.30
59961;DHT22;55902;-37.980;-63.602;2023-05-07T12:12:25;11.70;98.00
59961;DHT22;55902;-37.980;-63.602;2023-05-07T12:14:53;12.40;97.60
59961;DHT22;55902;-37.980;-63.602;2023-05-07T12:17:20;13.10;97.10
59961;DHT22;55902;-37.980;-63.602;2023-05-07T12:19:47;13.90;96.70
59961;DHT22;55902;-37.980;-63.602;2023-05-07T12:22:15;14.50;96.10
59961;DHT22;55902;-37.980;-63.602;2023-05-07T12:24:45;15.20;95.80
59961;DHT22;55902;-37.980;-63.602;2023-05-07T12:27:13;15.80;95.70
59961;DHT22;55902;-37.980;-63.602;2023-05-07T12:29:45;16.40;95.00
59961;DHT22;55902;-37.980;-63.602;2023-05-07T12:32:19;16.80;93.70
59961;DHT22;55902;-37.980;-63.602;2023-05-07T12:34:50;17.30;94.00
59961;DHT22;55902;-37.980;-63.602;2023-05-07T12:37:22;17.70;93.50
59961;DHT22;55902;-37.980;-63.602;2023-05-07T12:39:59;18.00;93.00
59961;DHT22;55902;-37.980;-63.602;2023-05-07T12:42:35;18.40;92.30
59961;DHT22;55902;-37.980;-63.602;2023-05-07T12:45:12;18.90;92.70
59961;DHT22;55902;-37.980;-63.602;2023-05-07T12:47:43;19.40;92.20
59961;DHT22;55902;-37.980;-63.602;2023-05-07T12:50:10;19.80;92.00
59961;DHT22;55902;-37.980;-63.602;2023-05-07T12:52:38;20.20;91.60
59961;DHT22;55902;-37.980;-63.602;2023-05-07T12:58:34;21.10;90.30
59961;DHT22;55902;-37.980;-63.602;2023-05-07T13:01:06;21.50;89.20
59961;DHT22;55902;-37.980;-63.602;2023-05-07T13:07:39;22.20;86.50
59961;DHT22;55902;-37.980;-63.602;2023-05-07T13:10:07;22.60;83.90
59961;DHT22;55902;-37.980;-63.602;2023-05-07T13:12:34;22.90;85.30
59961;DHT22;55902;-37.980;-63.602;2023-05-07T13:15:01;23.20;79.90
59961;DHT22;55902;-37.980;-63.602;2023-05-07T13:17:28;23.40;74.30
59961;DHT22;55902;-37.980;-63.602;2023-05-07T13:19:57;23.40;73.00
59961;DHT22;55902;-37.980;-63.602;2023-05-07T13:22:24;23.50;75.00
59961;DHT22;55902;-37.980;-63.602;2023-05-07T13:24:51;23.60;76.80
59961;DHT22;55902;-37.980;-63.602;2023-05-07T13:27:18;23.70;74.30
59961;DHT22;55902;-37.980;-63.602;2023-05-07T13:29:45;23.80;72.30
59961;DHT22;55902;-37.980;-63.602;2023-05-07T13:32:12;23.80;70.40
59961;DHT22;55902;-37.980;-63.602;2023-05-07T13:34:39;23.80;71.50
59961;DHT22;55902;-37.980;-63.602;2023-05-07T13:37:07;23.90;73.60
59961;DHT22;55902;-37.980;-63.602;2023-05-07T13:39:34;23.90;69.20
59961;DHT22;55902;-37.980;-63.602;2023-05-07T13:42:01;24.10;74.00
59961;DHT22;55902;-37.980;-63.602;2023-05-07T13:44:28;24.40;73.10
59961;DHT22;55902;-37.980;-63.602;2023-05-07T13:46:55;24.70;68.70
59961;DHT22;55902;-37.980;-63.602;2023-05-07T13:49:22;24.70;65.50
59961;DHT22;55902;-37.980;-63.602;2023-05-07T13:51:49;24.80;66.60
59961;DHT22;55902;-37.980;-63.602;2023-05-07T13:54:16;25.00;68.40
59961;DHT22;55902;-37.980;-63.602;2023-05-07T13:56:43;25.00;61.00
59961;DHT22;55902;-37.980;-63.602;2023-05-07T14:02:32;25.20;69.50
59961;DHT22;55902;-37.980;-63.602;2023-05-07T14:05:00;25.60;69.70
59961;DHT22;55902;-37.980;-63.602;2023-05-07T14:07:27;25.90;67.40
59961;DHT22;55902;-37.980;-63.602;2023-05-07T14:17:43;26.60;61.60
59961;DHT22;55902;-37.980;-63.602;2023-05-07T14:20:11;26.80;64.30
59961;DHT22;55902;-37.980;-63.602;2023-05-07T14:22:38;26.80;64.30
59961;DHT22;55902;-37.980;-63.602;2023-05-07T14:25:06;26.90;59.90
59961;DHT22;55902;-37.980;-63.602;2023-05-07T14:27:36;26.90;62.00
59961;DHT22;55902;-37.980;-63.602;2023-05-07T14:30:03;27.10;65.30
59961;DHT22;55902;-37.980;-63.602;2023-05-07T14:32:30;27.30;63.10
59961;DHT22;55902;-37.980;-63.602;2023-05-07T14:34:57;27.40;64.70
59961;DHT22;55902;-37.980;-63.602;2023-05-07T14:37:24;27.60;58.40
59961;DHT22;55902;-37.980;-63.602;2023-05-07T14:39:51;27.80;63.20
59961;DHT22;55902;-37.980;-63.602;2023-05-07T14:42:18;28.10;63.80
59961;DHT22;55902;-37.980;-63.602;2023-05-07T14:44:45;28.30;58.90
59961;DHT22;55902;-37.980;-63.602;2023-05-07T14:47:14;28.50;63.50
59961;DHT22;55902;-37.980;-63.602;2023-05-07T14:49:42;28.70;64.20
59961;DHT22;55902;-37.980;-63.602;2023-05-07T14:52:09;29.10;60.00
59961;DHT22;55902;-37.980;-63.602;2023-05-07T14:54:37;29.10;57.40
59961;DHT22;55902;-37.980;-63.602;2023-05-07T14:57:05;29.20;60.90
59961;DHT22;55902;-37.980;-63.602;2023-05-07T14:59:32;29.40;59.40
59961;DHT22;55902;-37.980;-63.602;2023-05-07T15:01:59;29.70;62.60
59961;DHT22;55902;-37.980;-63.602;2023-05-07T15:04:26;30.00;58.40
59961;DHT22;55902;-37.980;-63.602;2023-05-07T15:06:53;30.20;58.50
59961;DHT22;55902;-37.980;-63.602;2023-05-07T15:09:22;30.30;60.20
59961;DHT22;55902;-37.980;-63.602;2023-05-07T15:11:49;30.50;58.70
59961;DHT22;55902;-37.980;-63.602;2023-05-07T15:14:16;30.60;58.00
59961;DHT22;55902;-37.980;-63.602;2023-05-07T15:16:43;30.90;61.50
59961;DHT22;55902;-37.980;-63.602;2023-05-07T15:19:11;31.10;60.60
59961;DHT22;55902;-37.980;-63.602;2023-05-07T15:21:38;31.20;60.00
59961;DHT22;55902;-37.980;-63.602;2023-05-07T15:24:05;31.30;61.20
59961;DHT22;55902;-37.980;-63.602;2023-05-07T15:26:32;31.60;59.50
59961;DHT22;55902;-37.980;-63.602;2023-05-07T15:28:59;31.80;55.10
59961;DHT22;55902;-37.980;-63.602;2023-05-07T15:31:29;32.00;56.90
59961;DHT22;55902;-37.980;-63.602;2023-05-07T15:33:56;32.00;55.20
59961;DHT22;55902;-37.980;-63.602;2023-05-07T15:36:23;31.80;51.40
59961;DHT22;55902;-37.980;-63.602;2023-05-07T15:38:50;32.00;56.90
59961;DHT22;55902;-37.980;-63.602;2023-05-07T15:41:17;32.20;53.80
59961;DHT22;55902;-37.980;-63.602;2023-05-07T15:43:49;32.20;49.90
59961;DHT22;55902;-37.980;-63.602;2023-05-07T15:46:21;32.10;54.90
59961;DHT22;55902;-37.980;-63.602;2023-05-07T15:48:50;32.10;55.80
59961;DHT22;55902;-37.980;-63.602;2023-05-07T15:51:17;32.30;55.90
59961;DHT22;55902;-37.980;-63.602;2023-05-07T15:53:44;32.50;55.60
59961;DHT22;55902;-37.980;-63.602;2023-05-07T15:56:11;32.80;54.90
59961;DHT22;55902;-37.980;-63.602;2023-05-07T15:58:41;33.00;55.60
59961;DHT22;55902;-37.980;-63.602;2023-05-07T16:01:08;32.90;52.70
59961;DHT22;55902;-37.980;-63.602;2023-05-07T16:03:35;33.10;52.50
59961;DHT22;55902;-37.980;-63.602;2023-05-07T16:06:03;33.20;50.00
59961;DHT22;55902;-37.980;-63.602;2023-05-07T16:08:31;33.40;51.60
59961;DHT22;55902;-37.980;-63.602;2023-05-07T16:10:59;33.50;52.60
59961;DHT22;55902;-37.980;-63.602;2023-05-07T16:13:26;33.40;48.00
59961;DHT22;55902;-37.980;-63.602;2023-05-07T16:15:57;33.40;51.30
59961;DHT22;55902;-37.980;-63.602;2023-05-07T16:18:24;33.60;52.50
59961;DHT22;55902;-37.980;-63.602;2023-05-07T16:20:51;33.90;52.90
59961;DHT22;55902;-37.980;-63.602;2023-05-07T16:23:20;34.20;52.50
59961;DHT22;55902;-37.980;-63.602;2023-05-07T16:25:48;34.30;47.40
59961;DHT22;55902;-37.980;-63.602;2023-05-07T16:28:15;34.40;52.10
59961;DHT22;55902;-37.980;-63.602;2023-05-07T16:30:42;34.50;50.70
59961;DHT22;55902;-37.980;-63.602;2023-05-07T16:33:09;34.40;48.60
59961;DHT22;55902;-37.980;-63.602;2023-05-07T16:35:36;34.30;46.80
59961;DHT22;55902;-37.980;-63.602;2023-05-07T16:38:03;34.30;47.20
59961;DHT22;55902;-37.980;-63.602;2023-05-07T16:40:38;34.30;45.00
59961;DHT22;55902;-37.980;-63.602;2023-05-07T16:43:05;34.20;46.10
59961;DHT22;55902;-37.980;-63.602;2023-05-07T16:45:32;34.30;46.80
59961;DHT22;55902;-37.980;-63.602;2023-05-07T16:47:59;34.40;48.40
59961;DHT22;55902;-37.980;-63.602;2023-05-07T16:53:50;35.10;47.00